Time;durP1;ratioP1;P1;durP2;ratioP2;P2;SDS_P1;SDS_P2;PMS_P1;PMS_P2;Temp;Humidity;BMP_temperature;BMP_pressure;BME280_temperature;BME280_humidity;BME280_pressure;Samples;Min_cycle;Max_cycle;Signal;HPM_P1;HPM_P2
2022/09/09 00:00:17;;;;;;;13.50;5.80;;;;;;;;;;5030888;28;20036;-73
2022/09/09 00:03:10;;;;;;;15.68;7.15;;;;;;;;;;5033594;28;20029;-73
2022/09/09 00:05:44;;;;;;;8.95;6.03;;;;;;;;;;5007545;28;20041;-73
2022/09/09 00:08:14;;;;;;;15.30;6.07;;;;;;;;;;5023089;28;20036;-73
2022/09/09 00:10:41;;;;;;;9.07;6.13;;;;;;;;;;5043079;28;20113;-73
2022/09/09 00:13:17;;;;;;;11.43;6.20;;;;;;;;;;5030941;28;20065;-73
2022/09/09 00:16:18;;;;;;;10.55;5.55;;;;;;;;;;5030474;28;20033;-73
2022/09/09 00:18:47;;;;;;;11.02;6.22;;;;;;;;;;5010704;28;20084;-73
2022/09/09 00:21:17;;;;;;;13.07;6.10;;;;;;;;;;5033912;28;20052;-73
2022/09/09 00:23:53;;;;;;;9.30;6.00;;;;;;;;;;5031722;28;20035;-73
2022/09/09 00:26:29;;;;;;;8.32;6.45;;;;;;;;;;5032169;28;20677;-73
2022/09/09 00:29:02;;;;;;;8.95;5.75;;;;;;;;;;5031738;28;20044;-72
2022/09/09 00:31:30;;;;;;;11.38;6.20;;;;;;;;;;5032190;28;20052;-73
2022/09/09 00:33:59;;;;;;;11.02;6.70;;;;;;;;;;5032805;28;20135;-73
2022/09/09 00:36:28;;;;;;;10.50;6.45;;;;;;;;;;5014827;28;20054;-73
2022/09/09 00:39:00;;;;;;;8.85;5.90;;;;;;;;;;5030935;28;20086;-73
2022/09/09 00:41:41;;;;;;;11.27;5.97;;;;;;;;;;5032632;28;20021;-72
2022/09/09 00:44:18;;;;;;;9.25;6.13;;;;;;;;;;5032597;28;20303;-73
2022/09/09 00:46:50;;;;;;;7.60;5.30;;;;;;;;;;5029990;28;20041;-73
2022/09/09 00:49:25;;;;;;;10.43;6.05;;;;;;;;;;5030650;28;20061;-72
2022/09/09 00:51:54;;;;;;;13.40;5.78;;;;;;;;;;5032029;28;20033;-72
2022/09/09 00:54:28;;;;;;;10.73;5.85;;;;;;;;;;5032280;28;20033;-74
2022/09/09 00:57:13;;;;;;;9.95;5.70;;;;;;;;;;5026241;28;20025;-73
2022/09/09 00:59:40;;;;;;;10.70;5.72;;;;;;;;;;5031491;28;20033;-72
2022/09/09 01:02:16;;;;;;;10.88;5.80;;;;;;;;;;5025303;28;20038;-72
2022/09/09 01:04:44;;;;;;;7.45;5.60;;;;;;;;;;5041230;28;20064;-73
2022/09/09 01:07:28;;;;;;;8.88;5.65;;;;;;;;;;5033933;28;20036;-73
2022/09/09 01:09:54;;;;;;;13.13;5.63;;;;;;;;;;5027003;28;20438;-73
2022/09/09 01:12:30;;;;;;;10.57;5.20;;;;;;;;;;5037288;28;20424;-73
2022/09/09 01:15:09;;;;;;;9.75;4.43;;;;;;;;;;5012722;28;20377;-73
2022/09/09 01:17:47;;;;;;;9.65;4.97;;;;;;;;;;5023903;28;20037;-72
2022/09/09 01:20:19;;;;;;;9.20;5.57;;;;;;;;;;5031186;28;20034;-72
2022/09/09 01:22:45;;;;;;;9.80;4.88;;;;;;;;;;5032069;28;20120;-72
2022/09/09 01:25:25;;;;;;;11.27;4.40;;;;;;;;;;5031495;28;20041;-72
2022/09/09 01:27:53;;;;;;;11.73;4.82;;;;;;;;;;5031838;28;20037;-72
2022/09/09 01:30:19;;;;;;;10.48;5.00;;;;;;;;;;5030493;28;20087;-72
2022/09/09 01:32:49;;;;;;;12.18;4.47;;;;;;;;;;5029484;28;20037;-72
2022/09/09 01:35:33;;;;;;;7.88;4.95;;;;;;;;;;5030660;28;20044;-73
2022/09/09 01:37:59;;;;;;;8.00;4.65;;;;;;;;;;5031306;28;20404;-73
2022/09/09 01:40:26;;;;;;;10.73;4.45;;;;;;;;;;5047139;28;20050;-73
2022/09/09 01:42:52;;;;;;;7.38;4.72;;;;;;;;;;5030535;28;20030;-72
2022/09/09 01:45:19;;;;;;;5.65;4.45;;;;;;;;;;5029100;28;20045;-72
2022/09/09 01:47:45;;;;;;;7.55;5.13;;;;;;;;;;5029899;28;20029;-72
2022/09/09 01:50:13;;;;;;;15.13;5.00;;;;;;;;;;5031691;28;20104;-71
2022/09/09 01:52:40;;;;;;;7.28;5.20;;;;;;;;;;5030163;28;20278;-71
2022/09/09 01:55:06;;;;;;;11.50;4.55;;;;;;;;;;5030364;28;20037;-71
2022/09/09 01:57:36;;;;;;;8.82;5.68;;;;;;;;;;5031559;28;20032;-72
2022/09/09 02:00:05;;;;;;;8.55;5.32;;;;;;;;;;5030564;28;20045;-73
2022/09/09 02:02:37;;;;;;;14.55;4.90;;;;;;;;;;5026139;28;20061;-72
2022/09/09 02:05:13;;;;;;;8.80;5.53;;;;;;;;;;5024763;28;20472;-72
2022/09/09 02:07:49;;;;;;;9.45;5.60;;;;;;;;;;5029700;28;20370;-72
2022/09/09 02:10:18;;;;;;;10.32;5.82;;;;;;;;;;5031179;28;20473;-71
2022/09/09 02:12:46;;;;;;;13.73;5.80;;;;;;;;;;5031488;28;20065;-72
2022/09/09 02:15:18;;;;;;;10.77;5.63;;;;;;;;;;5026365;28;20036;-72
2022/09/09 02:17:46;;;;;;;8.65;6.05;;;;;;;;;;5030655;28;20358;-72
2022/09/09 02:20:14;;;;;;;16.02;6.95;;;;;;;;;;5025105;28;20026;-72
2022/09/09 02:22:42;;;;;;;8.65;6.15;;;;;;;;;;5029493;28;20107;-71
2022/09/09 02:25:10;;;;;;;7.60;6.05;;;;;;;;;;5031005;28;20044;-72
2022/09/09 02:27:36;;;;;;;10.10;6.07;;;;;;;;;;5030447;28;20060;-72
2022/09/09 02:30:04;;;;;;;10.07;6.65;;;;;;;;;;5031600;28;20021;-72
2022/09/09 02:32:31;;;;;;;14.90;6.93;;;;;;;;;;5033782;28;20025;-72
2022/09/09 02:35:00;;;;;;;12.80;6.57;;;;;;;;;;5034683;28;20026;-72
2022/09/09 02:37:30;;;;;;;10.30;6.72;;;;;;;;;;5034652;28;20244;-72
2022/09/09 02:39:56;;;;;;;12.90;5.72;;;;;;;;;;5048432;28;20507;-72
2022/09/09 02:42:22;;;;;;;9.73;6.18;;;;;;;;;;5035321;28;20033;-72
2022/09/09 02:44:48;;;;;;;10.20;6.82;;;;;;;;;;5034294;28;20033;-71
2022/09/09 02:47:25;;;;;;;8.60;6.85;;;;;;;;;;5042091;28;20417;-72
2022/09/09 02:49:51;;;;;;;11.40;6.75;;;;;;;;;;5034168;28;20520;-72
2022/09/09 02:52:31;;;;;;;18.13;7.53;;;;;;;;;;5032675;28;20168;-72
2022/09/09 02:55:00;;;;;;;12.55;7.70;;;;;;;;;;5034175;28;20021;-72
2022/09/09 02:57:27;;;;;;;14.52;7.55;;;;;;;;;;5047360;28;20053;-72
2022/09/09 02:59:54;;;;;;;12.40;6.93;;;;;;;;;;5038970;28;20064;-72
2022/09/09 03:02:20;;;;;;;10.45;6.93;;;;;;;;;;5033219;28;20116;-71
2022/09/09 03:04:50;;;;;;;12.00;7.28;;;;;;;;;;5034162;28;20481;-72
2022/09/09 03:07:17;;;;;;;12.13;7.43;;;;;;;;;;5029277;28;20032;-71
2022/09/09 03:09:43;;;;;;;13.40;7.57;;;;;;;;;;5034061;28;20087;-72
2022/09/09 03:12:10;;;;;;;9.85;7.30;;;;;;;;;;5032310;28;20049;-72
2022/09/09 03:14:37;;;;;;;15.25;8.60;;;;;;;;;;5034001;28;20124;-72
2022/09/09 03:17:04;;;;;;;11.13;7.47;;;;;;;;;;5031889;28;20029;-73
2022/09/09 03:19:30;;;;;;;11.70;7.95;;;;;;;;;;5033790;28;20518;-72
2022/09/09 03:21:56;;;;;;;15.27;9.45;;;;;;;;;;5016134;28;20108;-72
2022/09/09 03:24:22;;;;;;;15.07;8.68;;;;;;;;;;5036854;28;20091;-72
2022/09/09 03:26:50;;;;;;;11.32;8.63;;;;;;;;;;5016136;28;20033;-72
2022/09/09 03:29:17;;;;;;;11.70;8.70;;;;;;;;;;5031807;28;20438;-72
2022/09/09 03:31:43;;;;;;;19.10;9.02;;;;;;;;;;5032485;28;20037;-72
2022/09/09 03:34:09;;;;;;;15.20;8.57;;;;;;;;;;5034968;28;20432;-72
2022/09/09 03:36:35;;;;;;;16.73;8.68;;;;;;;;;;5029973;28;20077;-72
2022/09/09 03:39:02;;;;;;;17.40;9.20;;;;;;;;;;5030575;28;20033;-72
2022/09/09 03:41:29;;;;;;;15.75;8.90;;;;;;;;;;5027951;28;20135;-72
2022/09/09 03:43:55;;;;;;;18.08;9.52;;;;;;;;;;5029741;28;20112;-72
2022/09/09 03:46:22;;;;;;;15.90;8.23;;;;;;;;;;5049856;28;20052;-72
2022/09/09 03:48:49;;;;;;;11.90;9.13;;;;;;;;;;5032166;28;20033;-72
2022/09/09 03:51:15;;;;;;;15.40;9.52;;;;;;;;;;5030802;28;20072;-72
2022/09/09 03:53:42;;;;;;;12.93;8.18;;;;;;;;;;5011751;28;20037;-72
2022/09/09 03:56:09;;;;;;;15.82;8.88;;;;;;;;;;5032830;28;20036;-72
2022/09/09 03:58:35;;;;;;;13.68;8.73;;;;;;;;;;5033398;28;20057;-72
2022/09/09 04:01:08;;;;;;;16.13;8.73;;;;;;;;;;5025288;28;20509;-73
2022/09/09 04:03:34;;;;;;;11.27;7.82;;;;;;;;;;5014252;28;20033;-72
2022/09/09 04:06:01;;;;;;;14.50;8.40;;;;;;;;;;5033306;28;20045;-73
2022/09/09 04:08:28;;;;;;;14.88;9.25;;;;;;;;;;5032700;28;20373;-73
2022/09/09 04:10:57;;;;;;;14.25;8.95;;;;;;;;;;5028342;28;20094;-73
2022/09/09 04:13:24;;;;;;;15.63;8.25;;;;;;;;;;5032081;28;20025;-72
2022/09/09 04:15:52;;;;;;;12.98;8.27;;;;;;;;;;5027053;28;20065;-73
2022/09/09 04:18:19;;;;;;;13.02;8.30;;;;;;;;;;5033470;28;20492;-73
2022/09/09 04:20:46;;;;;;;13.48;8.23;;;;;;;;;;5032797;28;20448;-73
2022/09/09 04:23:13;;;;;;;14.32;8.75;;;;;;;;;;5024226;28;20477;-71
2022/09/09 04:25:46;;;;;;;13.05;8.45;;;;;;;;;;5027506;28;20037;-71
2022/09/09 04:28:13;;;;;;;18.02;8.98;;;;;;;;;;5023455;28;20056;-70
2022/09/09 04:30:39;;;;;;;15.80;10.27;;;;;;;;;;5034412;28;20354;-70
2022/09/09 04:33:06;;;;;;;16.35;8.02;;;;;;;;;;5030679;28;20032;-72
2022/09/09 04:35:32;;;;;;;12.45;8.65;;;;;;;;;;5030579;28;20041;-73
2022/09/09 04:37:58;;;;;;;19.17;8.68;;;;;;;;;;5049197;28;20476;-73
2022/09/09 04:40:25;;;;;;;14.13;8.70;;;;;;;;;;5055382;28;20342;-72
2022/09/09 04:42:51;;;;;;;11.75;8.45;;;;;;;;;;5052695;28;20091;-73
2022/09/09 04:45:18;;;;;;;11.07;8.07;;;;;;;;;;5056140;28;20048;-72
2022/09/09 04:47:44;;;;;;;16.35;9.52;;;;;;;;;;5042873;28;20503;-71
2022/09/09 04:50:11;;;;;;;17.38;7.85;;;;;;;;;;5047474;28;20117;-71
2022/09/09 04:52:37;;;;;;;15.65;8.68;;;;;;;;;;5049452;28;20112;-70
2022/09/09 04:55:04;;;;;;;12.50;9.10;;;;;;;;;;5051786;28;20040;-71
2022/09/09 04:57:32;;;;;;;11.32;7.57;;;;;;;;;;5048513;28;20028;-69
2022/09/09 04:59:59;;;;;;;12.77;9.73;;;;;;;;;;5065872;28;20561;-69
2022/09/09 05:02:26;;;;;;;19.00;14.93;;;;;;;;;;5051115;28;20056;-69
2022/09/09 05:04:52;;;;;;;12.50;9.30;;;;;;;;;;5052510;28;20083;-72
2022/09/09 05:07:18;;;;;;;12.35;9.25;;;;;;;;;;5050511;28;20025;-71
2022/09/09 05:09:45;;;;;;;14.10;9.30;;;;;;;;;;5054232;28;20496;-72
2022/09/09 05:12:11;;;;;;;17.35;10.48;;;;;;;;;;5055274;28;20040;-71
2022/09/09 05:14:37;;;;;;;15.90;10.60;;;;;;;;;;5034427;28;20477;-71
2022/09/09 05:17:03;;;;;;;12.00;9.65;;;;;;;;;;5050654;28;20029;-72
2022/09/09 05:19:30;;;;;;;17.10;10.82;;;;;;;;;;5051087;28;20025;-72
2022/09/09 05:21:57;;;;;;;12.75;9.70;;;;;;;;;;5049178;28;20028;-71
2022/09/09 05:24:23;;;;;;;15.73;10.82;;;;;;;;;;5039006;28;20037;-70
2022/09/09 05:26:49;;;;;;;15.32;9.50;;;;;;;;;;5049514;28;20025;-70
2022/09/09 05:29:19;;;;;;;14.18;10.10;;;;;;;;;;5051730;28;20039;-71
2022/09/09 05:31:45;;;;;;;13.90;11.10;;;;;;;;;;5054011;28;20372;-71
2022/09/09 05:34:11;;;;;;;19.75;10.27;;;;;;;;;;5033978;28;20037;-71
2022/09/09 05:36:37;;;;;;;14.38;10.75;;;;;;;;;;5042454;28;20056;-72
2022/09/09 05:39:03;;;;;;;16.17;9.88;;;;;;;;;;5051421;28;20504;-72
2022/09/09 05:41:31;;;;;;;17.45;10.70;;;;;;;;;;5031500;28;20054;-71
2022/09/09 05:44:00;;;;;;;13.77;9.68;;;;;;;;;;5052755;28;20033;-72
2022/09/09 05:46:26;;;;;;;12.55;9.38;;;;;;;;;;5041598;28;20042;-72
2022/09/09 05:48:53;;;;;;;17.23;10.43;;;;;;;;;;5030962;28;20041;-71
2022/09/09 05:51:22;;;;;;;18.55;9.88;;;;;;;;;;5047932;28;20144;-72
2022/09/09 05:53:48;;;;;;;12.32;9.18;;;;;;;;;;5052826;28;20104;-72
2022/09/09 05:56:17;;;;;;;14.75;9.35;;;;;;;;;;5051176;28;20031;-71
2022/09/09 05:58:43;;;;;;;14.50;8.55;;;;;;;;;;5051694;28;20025;-73
2022/09/09 06:01:20;;;;;;;13.82;8.30;;;;;;;;;;5049670;28;20032;-73
2022/09/09 06:03:46;;;;;;;13.07;8.98;;;;;;;;;;5049929;28;20043;-71
2022/09/09 06:06:15;;;;;;;17.00;11.35;;;;;;;;;;5050228;28;20025;-70
2022/09/09 06:08:42;;;;;;;47.58;32.38;;;;;;;;;;5048948;28;20110;-71
2022/09/09 06:11:10;;;;;;;16.10;9.68;;;;;;;;;;5051456;28;20071;-72
2022/09/09 06:13:39;;;;;;;15.15;8.50;;;;;;;;;;5050544;28;20025;-72
2022/09/09 06:16:15;;;;;;;13.05;8.43;;;;;;;;;;5054979;28;20167;-72
2022/09/09 06:18:42;;;;;;;13.13;8.93;;;;;;;;;;5059639;28;20039;-72
2022/09/09 06:21:18;;;;;;;10.40;9.10;;;;;;;;;;5070871;28;20024;-71
2022/09/09 06:23:44;;;;;;;13.55;9.02;;;;;;;;;;5037769;28;20033;-71
2022/09/09 06:26:12;;;;;;;11.85;8.90;;;;;;;;;;5029127;28;20120;-71
2022/09/09 06:28:38;;;;;;;16.55;9.05;;;;;;;;;;5027068;28;20039;-70
2022/09/09 06:31:05;;;;;;;15.43;10.27;;;;;;;;;;5050422;28;20037;-71
2022/09/09 06:33:32;;;;;;;12.82;9.25;;;;;;;;;;5049640;28;20512;-71
2022/09/09 06:35:58;;;;;;;15.13;9.18;;;;;;;;;;5047694;28;20041;-72
2022/09/09 06:38:25;;;;;;;10.60;9.02;;;;;;;;;;5039397;28;20384;-71
2022/09/09 06:40:52;;;;;;;18.30;10.18;;;;;;;;;;5032169;28;20032;-72
2022/09/09 06:43:19;;;;;;;12.85;9.60;;;;;;;;;;5030718;28;20037;-71
2022/09/09 06:45:52;;;;;;;17.08;9.35;;;;;;;;;;5029773;28;20432;-72
2022/09/09 06:48:19;;;;;;;15.15;9.52;;;;;;;;;;5029796;28;20037;-71
2022/09/09 06:50:45;;;;;;;14.55;9.75;;;;;;;;;;5038325;28;20385;-72
2022/09/09 06:53:11;;;;;;;18.30;10.27;;;;;;;;;;5035987;28;20044;-72
2022/09/09 06:55:37;;;;;;;14.10;8.88;;;;;;;;;;5031336;28;20025;-72
2022/09/09 06:58:03;;;;;;;13.07;8.45;;;;;;;;;;5029980;28;22267;-71
2022/09/09 07:00:30;;;;;;;14.10;8.02;;;;;;;;;;5029652;28;20029;-71
2022/09/09 07:02:56;;;;;;;17.05;9.30;;;;;;;;;;5036849;28;20025;-71
2022/09/09 07:05:22;;;;;;;40.13;12.75;;;;;;;;;;5022144;28;20048;-71
2022/09/09 07:07:48;;;;;;;24.02;8.70;;;;;;;;;;5030570;28;20037;-71
2022/09/09 07:10:14;;;;;;;10.20;7.30;;;;;;;;;;5043209;28;20074;-71
2022/09/09 07:12:40;;;;;;;24.90;17.23;;;;;;;;;;5028771;28;20038;-72
2022/09/09 07:15:06;;;;;;;15.00;8.05;;;;;;;;;;5008519;28;20115;-72
2022/09/09 07:17:32;;;;;;;17.40;7.93;;;;;;;;;;5010911;28;20033;-72
2022/09/09 07:19:58;;;;;;;12.43;7.32;;;;;;;;;;5027812;28;20029;-72
2022/09/09 07:22:24;;;;;;;9.02;6.32;;;;;;;;;;5009053;28;20041;-70
2022/09/09 07:24:50;;;;;;;7.95;6.05;;;;;;;;;;5031556;28;20057;-71
2022/09/09 07:27:16;;;;;;;10.73;6.25;;;;;;;;;;5039519;28;20057;-72
2022/09/09 07:29:42;;;;;;;8.07;6.00;;;;;;;;;;5036362;28;20072;-72
2022/09/09 07:32:08;;;;;;;9.20;6.28;;;;;;;;;;5029303;28;20038;-71
2022/09/09 07:34:34;;;;;;;8.55;5.35;;;;;;;;;;5037636;28;20036;-71
2022/09/09 07:37:00;;;;;;;9.75;5.93;;;;;;;;;;5041273;28;20128;-72
2022/09/09 07:39:26;;;;;;;8.05;5.22;;;;;;;;;;5036472;28;20149;-71
2022/09/09 07:41:54;;;;;;;11.38;5.43;;;;;;;;;;5034128;28;20492;-71
2022/09/09 07:44:27;;;;;;;7.90;5.15;;;;;;;;;;5032316;28;20041;-70
2022/09/09 07:46:54;;;;;;;8.50;4.82;;;;;;;;;;5036458;28;20053;-71
2022/09/09 07:49:20;;;;;;;10.50;5.10;;;;;;;;;;5034222;28;20024;-71
2022/09/09 07:51:48;;;;;;;10.02;5.00;;;;;;;;;;5024086;28;20037;-71
2022/09/09 07:54:16;;;;;;;6.50;4.57;;;17.30;99.90;;;;;;5032451;28;20060;-71
2022/09/09 07:56:42;;;;;;;5.30;4.20;;;;;;;;;;5033197;28;20045;-71
2022/09/09 07:59:09;;;;;;;7.47;4.93;;;;;;;;;;5041552;28;20036;-71
2022/09/09 08:01:39;;;;;;;12.68;4.80;;;;;;;;;;5037640;28;20477;-71
2022/09/09 08:04:06;;;;;;;6.25;3.95;;;;;;;;;;5033337;28;20029;-74
2022/09/09 08:06:35;;;;;;;9.43;4.25;;;;;;;;;;5044186;28;20035;-72
2022/09/09 08:09:01;;;;;;;11.48;5.40;;;;;;;;;;5039601;28;20036;-71
2022/09/09 08:11:28;;;;;;;11.80;5.00;;;;;;;;;;5031549;28;20026;-70
2022/09/09 08:13:55;;;;;;;12.70;5.00;;;;;;;;;;5033140;28;20466;-70
2022/09/09 08:16:22;;;;;;;13.65;4.88;;;;;;;;;;5035027;28;20476;-69
2022/09/09 08:18:49;;;;;;;22.65;5.90;;;;;;;;;;5030851;28;20025;-69
2022/09/09 08:21:19;;;;;;;8.43;4.43;;;;;;;;;;5034082;28;20038;-68
2022/09/09 08:23:47;;;;;;;9.75;4.50;;;;;;;;;;5028714;28;20025;-69
2022/09/09 08:26:13;;;;;;;6.22;3.92;;;;;;;;;;5032562;28;20041;-69
2022/09/09 08:28:39;;;;;;;10.40;4.70;;;;;;;;;;5032024;28;20470;-69
2022/09/09 08:31:13;;;;;;;10.23;4.13;;;;;;;;;;5034486;28;20025;-69
2022/09/09 08:33:41;;;;;;;12.65;5.18;;;;;;;;;;5032407;28;20029;-69
2022/09/09 08:36:09;;;;;;;6.63;4.25;;;17.80;99.90;;;;;;5026884;28;20030;-73
2022/09/09 08:38:37;;;;;;;12.93;6.38;;;;;;;;;;5048273;28;20049;-70
2022/09/09 08:41:21;;;;;;;13.68;4.85;;;;;;;;;;5050268;28;20465;-70
2022/09/09 08:43:50;;;;;;;9.20;4.15;;;18.10;99.90;;;;;;5041050;28;20334;-70
2022/09/09 08:46:30;;;;;;;10.55;3.33;;;;;;;;;;5052464;28;20468;-72
2022/09/09 08:49:04;;;;;;;11.70;3.75;;;17.90;99.90;;;;;;5051951;28;20033;-70
2022/09/09 08:51:31;;;;;;;11.65;3.75;;;;;;;;;;5068250;28;20392;-72
2022/09/09 08:54:02;;;;;;;8.35;3.08;;;17.80;99.90;;;;;;5060881;28;20487;-71
2022/09/09 08:56:28;;;;;;;9.65;3.35;;;;;;;;;;5031981;28;20040;-71
2022/09/09 08:58:56;;;;;;;6.63;2.30;;;;;;;;;;5046508;28;20029;-77
2022/09/09 09:01:37;;;;;;;7.07;3.17;;;17.90;99.90;;;;;;5050012;28;20037;-70
2022/09/09 09:04:08;;;;;;;7.80;3.15;;;;;;;;;;5031531;28;20029;-76
2022/09/09 09:06:52;;;;;;;8.95;3.75;;;;;;;;;;5051625;28;20377;-68
2022/09/09 09:09:30;;;;;;;9.45;2.75;;;19.20;99.90;;;;;;5032451;28;20033;-68
2022/09/09 09:12:03;;;;;;;14.80;3.08;;;;;;;;;;5048813;28;20112;-68
2022/09/09 09:14:30;;;;;;;8.13;2.63;;;;;;;;;;5052016;28;20044;-69
2022/09/09 09:16:56;;;;;;;8.52;2.78;;;;;;;;;;5046389;28;20024;-68
2022/09/09 09:19:24;;;;;;;8.40;2.28;;;;;;;;;;5030857;28;20108;-68
2022/09/09 09:22:10;;;;;;;5.75;2.10;;;;;;;;;;5051741;28;20029;-68
2022/09/09 09:24:36;;;;;;;11.13;2.70;;;;;;;;;;5027255;28;20550;-68
2022/09/09 09:27:35;;;;;;;12.68;2.60;;;19.00;99.90;;;;;;5053531;28;20075;-68
2022/09/09 09:30:02;;;;;;;7.15;2.90;;;;;;;;;;5037375;28;20044;-74
2022/09/09 09:32:30;;;;;;;8.52;2.55;;;;;;;;;;5047860;28;20108;-74
2022/09/09 09:34:58;;;;;;;9.95;3.85;;;;;;;;;;5048667;28;20536;-71
2022/09/09 09:37:31;;;;;;;11.27;2.50;;;;;;;;;;5038156;28;20095;-71
2022/09/09 09:40:09;;;;;;;15.85;2.25;;;;;;;;;;5032860;28;20031;-72
2022/09/09 09:42:35;;;;;;;6.47;2.33;;;;;;;;;;5022189;28;20052;-77
2022/09/09 09:45:20;;;;;;;9.25;2.10;;;;;;;;;;5036672;28;20089;-68
2022/09/09 09:47:46;;;;;;;5.50;2.08;;;;;;;;;;5031198;28;20358;-71
2022/09/09 09:50:20;;;;;;;5.97;1.63;;;18.80;99.90;;;;;;5027197;28;20033;-71
2022/09/09 09:52:55;;;;;;;5.38;1.73;;;;;;;;;;5026211;28;20030;-69
2022/09/09 09:55:22;;;;;;;6.57;1.63;;;;;;;;;;5012124;28;20029;-72
2022/09/09 09:57:48;;;;;;;7.93;2.05;;;;;;;;;;5029085;28;20068;-74
2022/09/09 10:00:15;;;;;;;8.85;2.75;;;;;;;;;;5030148;28;20037;-72
2022/09/09 10:02:43;;;;;;;11.07;1.95;;;;;;;;;;5025600;28;20026;-68
2022/09/09 10:05:26;;;;;;;5.68;1.48;;;;;;;;;;5027517;28;20045;-67
2022/09/09 10:08:02;;;;;;;6.20;1.70;;;;;;;;;;5006898;28;20456;-67
2022/09/09 10:10:35;;;;;;;7.82;1.70;;;19.80;99.90;;;;;;5028800;28;20025;-67
2022/09/09 10:13:33;;;;;;;9.68;2.35;;;;;;;;;;5012205;28;20061;-68
2022/09/09 10:16:05;;;;;;;7.95;1.80;;;19.30;99.90;;;;;;4989722;28;20048;-67
2022/09/09 10:18:31;;;;;;;6.03;1.40;;;;;;;;;;5033897;28;20037;-70
2022/09/09 10:21:08;;;;;;;11.70;2.00;;;19.70;99.90;;;;;;5030221;28;20086;-67
2022/09/09 10:23:34;;;;;;;7.15;1.85;;;;;;;;;;5028988;28;20055;-72
2022/09/09 10:26:00;;;;;;;5.78;1.50;;;;;;;;;;5023006;28;20389;-75
2022/09/09 10:28:43;;;;;;;7.85;1.65;;;;;;;;;;5024567;28;20080;-74
2022/09/09 10:31:27;;;;;;;8.90;1.50;;;21.60;99.90;;;;;;5029109;28;20029;-67
2022/09/09 10:34:02;;;;;;;9.48;1.20;;;;;;;;;;5030913;28;20041;-73
2022/09/09 10:36:29;;;;;;;25.00;16.70;;;;;;;;;;5024707;28;20141;-73
2022/09/09 10:39:05;;;;;;;6.82;1.75;;;;;;;;;;5028970;28;20054;-70
2022/09/09 10:41:31;;;;;;;4.47;1.52;;;;;;;;;;5010042;28;20025;-71
2022/09/09 10:43:58;;;;;;;4.85;1.40;;;;;;;;;;5028420;28;20040;-70
2022/09/09 10:46:53;;;;;;;8.95;2.03;;;;;;;;;;5024343;28;20381;-71
2022/09/09 10:49:55;;;;;;;5.95;1.70;;;;;;;;;;4985289;28;20177;-71
2022/09/09 10:52:21;;;;;;;8.70;1.40;;;;;;;;;;4985623;28;20499;-71
2022/09/09 10:54:49;;;;;;;7.38;1.50;;;;;;;;;;5025251;28;20539;-70
2022/09/09 10:57:31;;;;;;;7.95;1.30;;;20.70;99.90;;;;;;5033552;28;20037;-70
2022/09/09 11:00:04;;;;;;;2.60;0.75;;;20.80;99.90;;;;;;5026817;28;20037;-75
2022/09/09 11:02:31;;;;;;;7.15;1.33;;;;;;;;;;5021548;28;20040;-71
2022/09/09 11:05:15;;;;;;;10.82;5.28;;;21.00;99.90;;;;;;5032748;28;20037;-70
2022/09/09 11:07:43;;;;;;;8.70;1.85;;;;;;;;;;5032376;28;20037;-72
2022/09/09 11:10:27;;;;;;;7.88;1.52;;;;;;;;;;5029165;28;20112;-71
2022/09/09 11:12:56;;;;;;;8.05;2.15;;;;;;;;;;5029443;28;20496;-71
2022/09/09 11:15:29;;;;;;;6.32;1.30;;;20.70;99.90;;;;;;5030806;28;20048;-73
2022/09/09 11:17:59;;;;;;;4.38;1.20;;;20.90;99.90;;;;;;5035249;28;20034;-71
2022/09/09 11:20:26;;;;;;;6.13;1.15;;;;;;;;;;5015895;28;20040;-71
2022/09/09 11:22:56;;;;;;;6.82;1.42;;;;;;;;;;5033802;28;20033;-72
2022/09/09 11:25:40;;;;;;;5.43;1.40;;;20.70;99.90;;;;;;5036272;28;20041;-73
2022/09/09 11:28:27;;;;;;;7.15;1.33;;;20.50;99.90;;;;;;5032692;28;20037;-71
2022/09/09 11:31:12;;;;;;;8.20;1.73;;;20.20;99.90;;;;;;5027119;28;20029;-71
2022/09/09 11:33:44;;;;;;;5.03;1.20;;;;;;;;;;5032258;28;20030;-71
2022/09/09 11:36:10;;;;;;;10.18;1.38;;;;;;;;;;5049154;28;20032;-71
2022/09/09 11:38:38;;;;;;;6.68;1.42;;;19.60;99.90;;;;;;5070597;28;20036;-71
2022/09/09 11:41:08;;;;;;;11.35;1.90;;;19.50;99.90;;;;;;5061253;28;20032;-71
2022/09/09 11:43:46;;;;;;;8.75;1.55;;;19.30;99.90;;;;;;5056273;28;20036;-71
2022/09/09 11:46:15;;;;;;;6.85;1.70;;;19.30;99.90;;;;;;5051401;28;20055;-71
2022/09/09 11:48:45;;;;;;;8.40;1.50;;;19.40;99.90;;;;;;5053251;28;20549;-71
2022/09/09 11:51:25;;;;;;;9.23;1.77;;;;;;;;;;5053427;28;20025;-70
2022/09/09 11:53:57;;;;;;;6.97;1.45;;;;;;;;;;5040521;28;20037;-71
2022/09/09 11:56:31;;;;;;;5.90;1.73;;;19.80;99.90;;;;;;5052570;28;20025;-71
2022/09/09 11:59:00;;;;;;;8.07;2.03;;;;;;;;;;5046832;28;20025;-71
2022/09/09 12:01:33;;;;;;;8.35;1.48;;;20.00;99.90;;;;;;5053058;28;20468;-71
2022/09/09 12:04:08;;;;;;;9.10;1.45;;;;;;;;;;5053206;28;20078;-71
2022/09/09 12:06:43;;;;;;;10.13;1.70;;;20.60;99.90;;;;;;5052289;28;20033;-72
2022/09/09 12:09:27;;;;;;;8.40;2.22;;;;;;;;;;5068923;28;20035;-72
2022/09/09 12:12:05;;;;;;;11.73;1.80;;;;;;;;;;5050989;28;20396;-71
2022/09/09 12:15:15;;;;;;;8.77;1.63;;;20.60;99.90;;;;;;5035394;28;20392;-71
2022/09/09 12:17:45;;;;;;;8.30;1.70;;;;;;;;;;4988808;28;20049;-75
2022/09/09 12:20:17;;;;;;;9.57;1.60;;;20.90;99.90;;;;;;5049097;28;20038;-71
2022/09/09 12:23:19;;;;;;;6.22;1.58;;;20.70;99.90;;;;;;5052793;28;20029;-71
2022/09/09 12:25:48;;;;;;;10.77;2.08;;;;;;;;;;5051677;28;20539;-71
2022/09/09 12:28:14;;;;;;;8.88;2.30;;;;;;;;;;5051617;28;20104;-72
2022/09/09 12:30:59;;;;;;;8.88;1.70;;;20.60;99.90;;;;;;5051419;28;20112;-71
2022/09/09 12:33:33;;;;;;;7.15;1.48;;;;;;;;;;5033355;28;20083;-72
2022/09/09 12:36:00;;;;;;;10.57;1.55;;;;;;;;;;5052170;28;20488;-73
2022/09/09 12:38:35;;;;;;;7.13;1.60;;;;;;;;;;5051832;28;20495;-71
2022/09/09 12:41:01;;;;;;;6.97;1.60;;;;;;;;;;5052336;28;20036;-72
2022/09/09 12:43:28;;;;;;;7.60;1.42;;;20.50;99.90;;;;;;5052271;28;20281;-71
2022/09/09 12:45:57;;;;;;;5.32;1.77;;;;;;;;;;5052194;28;20064;-71
2022/09/09 12:48:32;;;;;;;6.07;1.50;;;20.60;99.90;;;;;;5060663;28;20029;-71
2022/09/09 12:51:00;;;;;;;7.43;1.60;;;;;;;;;;5050304;28;20057;-71
2022/09/09 12:53:28;;;;;;;4.78;1.90;;;;;;;;;;5055917;28;20021;-70
2022/09/09 12:55:58;;;;;;;6.50;1.13;;;20.70;99.90;;;;;;5052064;28;20087;-72
2022/09/09 12:58:25;;;;;;;5.90;1.17;;;;;;;;;;5051340;28;20444;-71
2022/09/09 13:00:52;;;;;;;6.32;1.35;;;;;;;;;;5050295;28;20495;-70
2022/09/09 13:03:19;;;;;;;5.28;1.23;;;;;;;;;;5052710;28;20033;-70
2022/09/09 13:05:46;;;;;;;4.60;1.30;;;;;;;;;;5052980;28;20036;-71
2022/09/09 13:08:13;;;;;;;11.68;1.80;;;;;;;;;;5072329;28;20052;-70
2022/09/09 13:10:39;;;;;;;9.00;1.63;;;;;;;;;;5063639;28;20385;-71
2022/09/09 13:13:20;;;;;;;9.70;1.92;;;;;;;;;;5029568;28;20036;-70
2022/09/09 13:15:53;;;;;;;9.25;1.58;;;;;;;;;;5051707;28;20032;-72
2022/09/09 13:18:24;;;;;;;9.38;1.70;;;20.10;99.90;;;;;;5052606;28;20104;-70
2022/09/09 13:20:51;;;;;;;5.55;1.20;;;;;;;;;;5050475;28;20029;-70
2022/09/09 13:23:19;;;;;;;8.13;2.35;;;20.40;99.90;;;;;;5052714;28;20044;-72
2022/09/09 13:25:59;;;;;;;10.45;2.53;;;20.30;99.90;;;;;;5055109;28;20468;-69
2022/09/09 13:28:28;;;;;;;7.57;1.80;;;20.00;99.90;;;;;;5049540;28;20024;-71
2022/09/09 13:31:04;;;;;;;7.45;1.55;;;;;;;;;;5051207;28;20035;-71
2022/09/09 13:33:36;;;;;;;7.28;1.65;;;;;;;;;;5032548;28;20105;-69
2022/09/09 13:36:05;;;;;;;;;;;;;;;;;;5041024;28;20040;-71
2022/09/09 13:38:34;;;;;;;8.35;1.80;;;;;;;;;;5036517;28;19917;-70
2022/09/09 13:41:03;;;;;;;6.68;1.40;;;;;;;;;;5031097;28;20117;-71
2022/09/09 13:43:36;;;;;;;5.47;1.27;;;19.90;99.90;;;;;;5031317;28;20024;-71
2022/09/09 13:46:06;;;;;;;4.55;1.08;;;;;;;;;;5007998;28;20079;-72
2022/09/09 13:48:32;;;;;;;3.83;0.85;;;;;;;;;;5019282;28;20040;-70
2022/09/09 13:51:05;;;;;;;6.13;1.55;;;;;;;;;;5029996;28;20040;-70
2022/09/09 13:53:31;;;;;;;4.00;1.20;;;;;;;;;;5036316;28;20013;-69
2022/09/09 13:55:57;;;;;;;10.77;6.85;;;;;;;;;;5023047;28;20072;-73
2022/09/09 13:58:25;;;;;;;5.07;1.13;;;;;;;;;;5004235;28;20089;-70
2022/09/09 14:00:51;;;;;;;4.82;1.00;;;;;;;;;;5024957;28;20030;-71
2022/09/09 14:03:17;;;;;;;3.03;0.82;;;;;;;;;;5017813;28;20104;-71
2022/09/09 14:05:44;;;;;;;2.83;0.65;;;;;;;;;;5030433;28;20136;-74
2022/09/09 14:08:13;;;;;;;3.40;0.80;;;;;;;;;;5030467;28;20058;-72
2022/09/09 14:10:39;;;;;;;3.67;0.77;;;;;;;;;;5023430;28;20025;-75
2022/09/09 14:13:05;;;;;;;4.38;0.85;;;;;;;;;;5023847;28;20029;-71
2022/09/09 14:15:31;;;;;;;3.95;0.90;;;;;;;;;;5030833;28;20048;-71
2022/09/09 14:17:58;;;;;;;3.50;0.65;;;;;;;;;;5031426;28;20025;-71
2022/09/09 14:20:24;;;;;;;4.57;0.90;;;22.00;99.90;;;;;;5029211;28;20021;-71
2022/09/09 14:22:49;;;;;;;2.92;0.70;;;21.90;99.90;;;;;;5030193;28;20048;-71
2022/09/09 14:25:15;;;;;;;4.72;1.00;;;;;;;;;;5030633;28;20048;-72
2022/09/09 14:27:42;;;;;;;4.50;0.93;;;;;;;;;;5033780;28;20393;-71
2022/09/09 14:30:09;;;;;;;2.40;0.80;;;;;;;;;;5035275;28;20393;-71
2022/09/09 14:32:34;;;;;;;4.28;1.13;;;21.90;99.90;;;;;;5031251;28;20080;-71
2022/09/09 14:35:01;;;;;;;4.10;1.02;;;;;;;;;;5032956;28;20493;-72